Time;durP1;ratioP1;P1;durP2;ratioP2;P2;SDS_P1;SDS_P2;PMS_P1;PMS_P2;Temp;Humidity;BMP_temperature;BMP_pressure;BME280_temperature;BME280_humidity;BME280_pressure;Samples;Min_cycle;Max_cycle;Signal;HPM_P1;HPM_P2
2022/11/15 05:02:10;;;;;;;3.33;3.13;;;;;;;;;;5287403;23;20527;-88
2022/11/15 05:04:36;;;;;;;3.20;3.00;;;;;;;;;;5047669;28;20484;-88
2022/11/15 05:07:03;;;;;;;4.05;3.65;;;;;;;;;;5034021;28;20493;-88
2022/11/15 05:09:29;;;;;;;4.07;3.70;;;;;;;;;;5048463;28;20856;-88
2022/11/15 05:11:56;;;;;;;3.35;3.05;;;;;;;;;;5032187;28;20420;-87
2022/11/15 05:14:21;;;;;;;3.55;3.20;;;;;;;;;;5032385;28;21039;-88
2022/11/15 05:16:48;;;;;;;4.30;3.90;;;;;;;;;;5043371;28;20473;-88
2022/11/15 05:19:14;;;;;;;4.40;3.78;;;;;;;;;;5049415;28;20385;-88
2022/11/15 05:21:40;;;;;;;5.78;3.40;;;;;;;;;;5050794;28;20377;-87
2022/11/15 05:24:06;;;;;;;3.70;3.40;;;;;;;;;;5052091;28;20727;-87
2022/11/15 05:26:32;;;;;;;3.72;3.42;;;;;;;;;;5050388;28;20515;-84
2022/11/15 05:28:59;;;;;;;3.97;3.67;;;;;;;;;;5050497;28;20452;-84
2022/11/15 05:31:25;;;;;;;3.90;3.60;;;;;;;;;;5051591;28;20963;-86
2022/11/15 05:33:52;;;;;;;5.80;4.10;;;;;;;;;;5051915;28;20423;-86
2022/11/15 05:36:37;;;;;;;4.20;3.38;;;;;;;;;;5051741;28;20862;-85
2022/11/15 05:39:04;;;;;;;4.07;3.40;;;;;;;;;;5044334;28;20383;-86
2022/11/15 05:41:33;;;;;;;4.40;3.20;;;;;;;;;;5045729;28;20439;-86
2022/11/15 05:44:00;;;;;;;3.60;3.30;;;;;;;;;;5051919;28;20404;-86
2022/11/15 05:46:26;;;;;;;4.13;3.40;;;;;;;;;;5051922;28;20447;-85
2022/11/15 05:48:53;;;;;;;3.20;2.90;;;;;;;;;;5051799;28;20431;-86
2022/11/15 05:51:20;;;;;;;4.18;3.28;;;;;;;;;;5051685;28;20417;-86
2022/11/15 05:53:47;;;;;;;3.67;3.20;;;;;;;;;;5051611;28;20377;-86
2022/11/15 05:56:13;;;;;;;3.47;3.17;;;;;;;;;;5051677;28;20396;-86
2022/11/15 05:58:39;;;;;;;4.70;3.10;;;;;;;;;;5051871;28;20377;-86
2022/11/15 06:01:05;;;;;;;4.10;3.80;;;;;;;;;;5051495;28;20493;-86
2022/11/15 06:03:31;;;;;;;3.90;3.50;;;;;;;;;;5051744;28;20464;-86
2022/11/15 06:05:57;;;;;;;5.60;4.23;;;;;;;;;;5051435;28;20484;-86
2022/11/15 06:08:23;;;;;;;4.05;3.75;;;;;;;;;;5051165;28;20860;-86
2022/11/15 06:10:49;;;;;;;4.67;3.90;;;;;;;;;;5050596;28;20491;-86
2022/11/15 06:13:15;;;;;;;5.85;4.13;;;;;;;;;;5050939;28;20409;-86
2022/11/15 06:15:41;;;;;;;4.68;3.90;;;;;;;;;;5019346;28;20419;-87
2022/11/15 06:18:07;;;;;;;4.88;4.35;;;;;;;;;;5031890;28;20379;-86
2022/11/15 06:20:33;;;;;;;5.22;3.92;;;;;;;;;;5031492;28;20383;-86
2022/11/15 06:23:00;;;;;;;5.95;5.10;;;;;;;;;;5031499;28;20417;-86
2022/11/15 06:25:26;;;;;;;5.97;5.30;;;;;;;;;;5031560;28;20387;-86
2022/11/15 06:27:53;;;;;;;4.60;4.20;;;;;;;;;;5031469;28;20466;-86
2022/11/15 06:30:19;;;;;;;4.70;3.67;;;;;;;;;;5031590;28;20413;-86
2022/11/15 06:32:45;;;;;;;5.00;4.60;;;;;;;;;;5013500;28;20963;-87
2022/11/15 06:35:11;;;;;;;3.70;3.28;;;;;;;;;;5034077;28;20426;-86
2022/11/15 06:37:37;;;;;;;4.88;4.38;;;;;;;;;;5035288;28;20410;-86
2022/11/15 06:40:03;;;;;;;4.63;3.83;;;;;;;;;;5034841;28;20423;-87
2022/11/15 06:42:29;;;;;;;4.90;4.40;;;;;;;;;;5034878;28;20396;-86
2022/11/15 06:44:55;;;;;;;6.30;5.70;;;;;;;;;;5034857;28;20399;-87
2022/11/15 06:47:21;;;;;;;9.73;8.82;;;;;;;;;;5034786;28;20478;-86
2022/11/15 06:49:47;;;;;;;6.75;4.32;;;;;;;;;;5034678;28;20395;-87
2022/11/15 06:52:13;;;;;;;4.57;4.18;;;;;;;;;;5034649;28;20437;-86
2022/11/15 06:54:39;;;;;;;9.13;7.90;;;;;;;;;;5040037;28;20435;-85
2022/11/15 06:57:05;;;;;;;5.80;4.40;;;;;;;;;;5054446;28;20409;-86
2022/11/15 06:59:31;;;;;;;16.57;12.97;;;;;;;;;;5036948;28;20384;-85
2022/11/15 07:01:57;;;;;;;4.20;3.90;;;;;;;;;;5054252;28;20397;-86
2022/11/15 07:04:23;;;;;;;5.53;3.95;;;;;;;;;;5054467;28;20473;-85
2022/11/15 07:06:49;;;;;;;5.45;4.35;;;;;;;;;;5054347;28;20465;-85
2022/11/15 07:09:15;;;;;;;4.68;3.97;;;;;;;;;;5054329;28;20400;-85
2022/11/15 07:11:41;;;;;;;4.03;3.63;;;;;;;;;;5054284;28;20473;-84
2022/11/15 07:14:07;;;;;;;5.22;4.82;;;;;;;;;;5054118;28;20381;-83
2022/11/15 07:16:33;;;;;;;5.18;4.53;;;;;;;;;;5054196;28;20378;-84
2022/11/15 07:18:59;;;;;;;6.22;5.72;;;;;;;;;;5054157;28;20787;-83
2022/11/15 07:21:25;;;;;;;6.20;5.60;;;;;;;;;;5053381;28;20399;-83
2022/11/15 07:23:51;;;;;;;4.33;4.03;;;;;;;;;;5042488;28;20489;-83
2022/11/15 07:26:17;;;;;;;4.32;3.92;;;;;;;;;;5051487;28;20476;-84
2022/11/15 07:28:43;;;;;;;4.38;3.97;;;;;;;;;;5053964;28;20789;-84
2022/11/15 07:31:09;;;;;;;4.43;4.07;;;;;;;;;;5053642;28;20408;-83
2022/11/15 07:33:36;;;;;;;4.43;3.93;;;;;;;;;;5053869;28;20924;-83
2022/11/15 07:36:02;;;;;;;6.05;4.30;;;;;;;;;;5054104;28;20409;-85
2022/11/15 07:38:29;;;;;;;7.13;4.20;;;;;;;;;;5053701;28;20380;-85
2022/11/15 07:40:58;;;;;;;5.32;4.50;;;;;;;;;;5053586;28;20389;-85
2022/11/15 07:43:27;;;;;;;7.05;5.15;;;;;;;;;;5053654;28;20431;-85
2022/11/15 07:45:53;;;;;;;9.45;6.22;;;;;;;;;;5052521;28;20715;-85
2022/11/15 07:48:19;;;;;;;8.10;6.35;;;;;;;;;;5053576;28;20413;-85
2022/11/15 07:50:45;;;;;;;8.85;6.32;;;;;;;;;;5053401;28;20936;-85
2022/11/15 07:53:11;;;;;;;9.07;6.65;;;;;;;;;;5053726;28;20766;-85
2022/11/15 07:55:38;;;;;;;6.60;5.93;;;;;;;;;;5053487;28;20377;-85
2022/11/15 07:58:05;;;;;;;7.07;5.50;;;;;;;;;;5053432;28;20382;-85
2022/11/15 08:00:31;;;;;;;6.53;5.10;;;;;;;;;;5053143;28;20385;-85
2022/11/15 08:03:05;;;;;;;5.93;5.32;;;;;;;;;;5053196;28;20396;-84
2022/11/15 08:05:31;;;;;;;9.18;7.00;;;;;;;;;;5053032;28;20381;-85
2022/11/15 08:07:57;;;;;;;8.82;6.82;;;;;;;;;;5057052;28;20496;-84
2022/11/15 08:10:23;;;;;;;7.22;6.53;;;;;;;;;;5054800;28;20432;-84
2022/11/15 08:12:56;;;;;;;8.10;6.70;;;;;;;;;;5034580;28;20387;-85
2022/11/15 08:15:22;;;;;;;8.10;7.30;;;;;;;;;;5046236;28;20402;-85
2022/11/15 08:17:53;;;;;;;10.13;8.02;;;;;;;;;;5055210;28;20781;-84
2022/11/15 08:20:19;;;;;;;12.90;8.27;;;;;;;;;;5054284;28;20726;-86
2022/11/15 08:22:45;;;;;;;10.45;8.93;;;;;;;;;;5053652;28;20380;-87
2022/11/15 08:25:11;;;;;;;14.57;9.73;;;;;;;;;;5051089;28;20392;-85
2022/11/15 08:27:37;;;;;;;20.73;12.63;;;;;;;;;;5047174;28;20465;-86
2022/11/15 08:30:03;;;;;;;22.33;13.15;;;;;;;;;;5048509;28;20494;-85
2022/11/15 08:32:30;;;;;;;31.80;16.45;;;;;;;;;;5049440;28;20845;-87
2022/11/15 08:34:56;;;;;;;65.45;35.38;;;;;;;;;;5052641;28;20730;-87
2022/11/15 08:37:22;;;;;;;122.18;65.43;;;;;;;;;;5039915;28;20377;-86
2022/11/15 08:39:49;;;;;;;121.03;66.10;;;;;;;;;;5052560;28;20482;-85
2022/11/15 08:42:16;;;;;;;83.95;43.13;;;;;;;;;;5052524;28;20378;-86
2022/11/15 08:44:42;;;;;;;90.47;50.70;;;;;;;;;;5052543;28;20420;-86
2022/11/15 08:47:08;;;;;;;49.20;26.38;;;;;;;;;;5051949;28;20512;-86
2022/11/15 08:49:34;;;;;;;37.85;20.33;;;;;;;;;;5062895;28;20367;-86
2022/11/15 08:52:00;;;;;;;40.25;21.20;;;;;;;;;;5054370;28;20481;-86
2022/11/15 08:54:26;;;;;;;44.87;22.20;;;;;;;;;;5052422;28;20888;-86
2022/11/15 08:56:52;;;;;;;50.95;25.40;;;;;;;;;;5051965;28;20381;-86
2022/11/15 08:59:18;;;;;;;52.15;25.48;;;;;;;;;;5052362;28;20730;-87
2022/11/15 09:01:44;;;;;;;45.90;24.42;;;;;;;;;;5052299;28;20867;-86
2022/11/15 09:04:10;;;;;;;38.92;23.05;;;;;;;;;;5052293;28;20408;-86
2022/11/15 09:06:36;;;;;;;40.42;23.65;;;;;;;;;;5052426;28;20378;-85
2022/11/15 09:09:03;;;;;;;48.33;25.80;;;;;;;;;;5052150;28;20396;-86
2022/11/15 09:11:29;;;;;;;47.42;26.02;;;;;;;;;;5052026;28;20409;-86
2022/11/15 09:13:55;;;;;;;43.03;24.70;;;;;;;;;;5048772;28;20423;-86
2022/11/15 09:16:21;;;;;;;44.83;25.40;;;;;;;;;;5063757;28;20375;-85
2022/11/15 09:18:47;;;;;;;42.10;25.48;;;;;;;;;;5065429;28;20418;-87
2022/11/15 09:21:13;;;;;;;62.37;32.40;;;;;;;;;;5060559;28;20450;-86
2022/11/15 09:23:39;;;;;;;60.55;32.22;;;;;;;;;;5066209;28;20384;-87
2022/11/15 09:26:06;;;;;;;57.35;31.27;;;;;;;;;;5064246;28;20385;-87
2022/11/15 09:28:32;;;;;;;49.72;28.85;;;;;;;;;;5053459;28;20373;-86
2022/11/15 09:30:59;;;;;;;65.00;34.40;;;;;;;;;;5060737;28;20416;-86
2022/11/15 09:33:25;;;;;;;64.57;34.97;;;;;;;;;;5052219;28;20486;-86
2022/11/15 09:35:51;;;;;;;64.63;33.83;;;;;;;;;;5052903;28;20881;-86
2022/11/15 09:38:17;;;;;;;59.60;33.38;;;;;;;;;;5051785;28;20378;-86
2022/11/15 09:40:43;;;;;;;65.57;34.25;;;;;;;;;;5051741;28;20389;-86
2022/11/15 09:43:22;;;;;;;52.97;30.10;;;;;;;;;;5052011;28;20382;-86
2022/11/15 09:45:51;;;;;;;58.65;31.13;;;;;;;;;;5051719;28;20381;-87
2022/11/15 09:48:35;;;;;;;58.45;31.20;;;;;;;;;;5051699;28;20381;-86
2022/11/15 09:51:03;;;;;;;52.10;29.10;;;;;;;;;;5051560;28;20881;-86
2022/11/15 09:53:36;;;;;;;47.55;28.60;;;;;;;;;;5051698;28;20409;-86
2022/11/15 09:56:06;;;;;;;52.50;30.03;;;;;;;;;;5051826;28;20510;-86
2022/11/15 09:58:39;;;;;;;49.53;32.08;;;;;;;;;;5033748;28;20389;-86
2022/11/15 10:01:08;;;;;;;47.45;29.25;;;;;;;;;;5051429;28;20428;-86
2022/11/15 10:03:35;;;;;;;48.13;29.30;;;;;;;;;;5051844;28;20378;-86
2022/11/15 10:06:02;;;;;;;45.95;28.00;;;;;;;;;;5051635;28;20377;-86
2022/11/15 10:08:47;;;;;;;42.20;26.87;;;;;;;;;;5051556;28;20888;-86
2022/11/15 10:11:21;;;;;;;44.97;27.50;;;;;;;;;;5042746;28;20402;-87
2022/11/15 10:13:49;;;;;;;39.05;26.42;;;;;;;;;;5035370;28;20899;-86
2022/11/15 10:16:23;;;;;;;33.20;23.80;;;;;;;;;;5035386;28;20379;-86
2022/11/15 10:19:04;;;;;;;44.60;27.20;;;;;;;;;;5035347;28;20911;-87
2022/11/15 10:21:54;;;;;;;36.33;24.23;;;;;;;;;;5054867;28;20522;-86
2022/11/15 10:24:20;;;;;;;38.35;27.08;;;;;;;;;;5044612;28;20738;-86
2022/11/15 10:26:47;;;;;;;46.25;29.85;;;;;;;;;;5037433;28;20400;-86
2022/11/15 10:29:18;;;;;;;45.40;30.80;;;;;;;;;;5055068;28;20885;-86
2022/11/15 10:31:44;;;;;;;56.30;33.90;;;;;;;;;;5054877;28;20401;-86
2022/11/15 10:34:18;;;;;;;41.60;29.45;;;;;;;;;;5054925;28;20389;-86
2022/11/15 10:36:45;;;;;;;40.13;28.30;;;;;;;;;;5054813;28;20387;-86
2022/11/15 10:39:14;;;;;;;47.15;30.23;;;;;;;;;;5054856;28;20384;-86
2022/11/15 10:41:41;;;;;;;54.00;34.13;;;;;;;;;;5054742;28;20384;-86
2022/11/15 10:44:07;;;;;;;54.28;34.65;;;;;;;;;;5054612;28;20381;-87
2022/11/15 10:46:37;;;;;;;57.30;35.53;;;;;;;;;;5054634;28;20389;-86
2022/11/15 10:49:14;;;;;;;61.20;36.90;;;;;;;;;;5054937;28;20404;-86
2022/11/15 10:51:48;;;;;;;64.50;36.65;;;;;;;;;;5054372;28;20419;-87
2022/11/15 10:54:16;;;;;;;68.10;39.35;;;;;;;;;;5054601;28;20374;-86
2022/11/15 10:56:43;;;;;;;60.75;37.60;;;;;;;;;;5051273;28;20439;-86
2022/11/15 10:59:16;;;;;;;62.83;37.70;;;;;;;;;;5054812;28;20738;-86
2022/11/15 11:01:48;;;;;;;63.72;38.40;;;;;;;;;;5054187;28;20739;-86
2022/11/15 11:04:14;;;;;;;76.63;43.70;;;;;;;;;;5054352;28;20431;-86
2022/11/15 11:07:06;;;;;;;69.13;41.17;;;;;;;;;;5064759;28;20458;-86
2022/11/15 11:09:33;;;;;;;69.70;42.40;;;;;;;;;;5054930;28;20455;-86
2022/11/15 11:12:00;;;;;;;76.25;43.85;;;;;;;;;;5053897;28;20405;-86
2022/11/15 11:14:30;;;;;;;89.18;50.25;;;;;;;;;;5054241;28;20385;-86
2022/11/15 11:17:09;;;;;;;68.93;42.00;;;;;;;;;;5054141;28;20888;-85
2022/11/15 11:19:47;;;;;;;63.90;40.10;;;;;;;;;;5053859;28;20388;-86
2022/11/15 11:22:51;;;;;;;64.07;40.10;;;;;;;;;;5050709;28;20401;-86
2022/11/15 11:25:20;;;;;;;68.07;42.55;;;;;;;;;;5012074;28;20389;-85
2022/11/15 11:27:56;;;;;;;61.15;38.35;;;;;;;;;;5012258;28;20392;-86
2022/11/15 11:30:25;;;;;;;60.70;38.95;;;;;;;;;;5024249;28;20896;-87
2022/11/15 11:33:09;;;;;;;55.15;36.97;;;;;;;;;;5022513;28;20846;-86
2022/11/15 11:35:53;;;;;;;59.27;38.63;;;;;;;;;;5053457;28;20708;-85
2022/11/15 11:38:25;;;;;;;44.05;30.85;;;;;;;;;;5046233;28;20714;-83
2022/11/15 11:40:51;;;;;;;41.55;30.33;;;;;;;;;;5061319;28;20381;-84
2022/11/15 11:43:34;;;;;;;36.80;26.63;;;;;;;;;;5053624;28;20890;-82
2022/11/15 11:46:00;;;;;;;36.70;27.15;;;;;;;;;;5036073;28;20381;-83
2022/11/15 11:48:26;;;;;;;28.13;22.85;;;;;;;;;;5053519;28;20861;-82
2022/11/15 11:50:52;;;;;;;31.13;23.47;;;;;;;;;;5053478;28;20766;-82
2022/11/15 11:53:25;;;;;;;29.95;23.10;;;;;;;;;;5053489;28;20464;-83
2022/11/15 11:55:57;;;;;;;30.05;23.95;;;;;;;;;;5053555;28;20397;-83
2022/11/15 11:58:43;;;;;;;30.42;23.48;;;;;;;;;;5053661;28;20409;-83
2022/11/15 12:01:15;;;;;;;28.30;22.73;;;;;;;;;;5056680;28;20481;-87
2022/11/15 12:03:47;;;;;;;29.90;23.70;;;;;;;;;;5048423;28;20383;-84
2022/11/15 12:06:24;;;;;;;23.77;19.17;;;;;;;;;;5033465;28;20387;-83
2022/11/15 12:09:13;;;;;;;25.50;21.42;;;;;;;;;;5033367;28;20383;-82
2022/11/15 12:11:48;;;;;;;19.33;16.77;;;;;;;;;;5041929;28;20450;-84
2022/11/15 12:14:22;;;;;;;25.90;20.67;;;;;;;;;;5061495;28;20388;-83
2022/11/15 12:16:48;;;;;;;27.95;23.25;;;;;;;;;;5053154;28;20385;-83
2022/11/15 12:19:14;;;;;;;27.55;22.52;;;;;;;;;;5053164;28;20405;-83
2022/11/15 12:21:50;;;;;;;34.33;25.20;;;;;;;;;;5058130;28;20451;-84
2022/11/15 12:24:21;;;;;;;35.45;25.20;;;;;;;;;;5047077;28;20847;-83
2022/11/15 12:27:07;;;;;;;34.88;25.65;;;;;;;;;;5060337;28;20389;-84
2022/11/15 12:29:37;;;;;;;38.57;27.60;;;;;;;;;;5012314;28;20386;-84
2022/11/15 12:32:04;;;;;;;33.78;26.85;;;;;;;;;;5051909;28;20402;-85
2022/11/15 12:34:30;;;;;;;28.15;23.20;;;;;;;;;;5035474;28;20844;-84
2022/11/15 12:36:56;;;;;;;31.88;23.77;;;;;;;;;;5052978;28;20412;-85
2022/11/15 12:39:42;;;;;;;28.38;22.17;;;;;;;;;;5034650;28;20870;-87
2022/11/15 12:42:07;;;;;;;26.73;21.47;;;;;;;;;;5052346;28;20373;-89
2022/11/15 12:44:38;;;;;;;26.92;21.35;;;;;;;;;;5052625;28;20889;-89
2022/11/15 12:47:22;;;;;;;24.30;20.17;;;;;;;;;;5063950;28;20416;-87
2022/11/15 12:49:48;;;;;;;24.42;19.30;;;;;;;;;;5051187;28;20388;-87
2022/11/15 12:52:15;;;;;;;27.98;21.60;;;;;;;;;;5041925;28;20471;-88
2022/11/15 12:54:41;;;;;;;26.52;21.10;;;;;;;;;;5049438;28;20373;-90
2022/11/15 12:57:07;;;;;;;25.60;20.83;;;;;;;;;;5051445;28;20473;-88
2022/11/15 12:59:50;;;;;;;25.23;20.83;;;;;;;;;;5049612;28;20389;-88
2022/11/15 13:02:26;;;;;;;29.67;21.05;;;;;;;;;;5031917;28;20910;-88
2022/11/15 13:04:53;;;;;;;26.48;20.48;;;;;;;;;;5032430;28;20398;-87
2022/11/15 13:07:37;;;;;;;23.07;19.67;;;;;;;;;;5032414;28;20429;-88
2022/11/15 13:10:12;;;;;;;23.43;18.87;;;;;;;;;;5040380;28;20393;-85
2022/11/15 13:12:44;;;;;;;21.92;18.88;;;;;;;;;;5029632;28;20912;-85
2022/11/15 13:15:10;;;;;;;22.30;18.90;;;;;;;;;;5048227;28;20387;-85
2022/11/15 13:17:39;;;;;;;24.30;19.63;;;;;;;;;;5052181;28;20378;-84
2022/11/15 13:20:11;;;;;;;24.90;18.58;;;;;;;;;;5052214;28;20373;-84
2022/11/15 13:22:59;;;;;;;25.90;20.30;;;;;;;;;;5051083;28;20377;-84
2022/11/15 13:25:41;;;;;;;24.40;20.85;;;;;;;;;;5052184;28;20380;-85
2022/11/15 13:28:13;;;;;;;23.92;21.33;;;;;;;;;;5051947;28;20373;-85
2022/11/15 13:30:39;;;;;;;23.30;20.27;;;;;;;;;;5052036;28;20535;-86
2022/11/15 13:33:15;;;;;;;23.85;20.85;;;;;;;;;;5052083;28;20382;-85
2022/11/15 13:35:42;;;;;;;22.48;18.80;;;;;;;;;;5052713;28;20361;-84
2022/11/15 13:38:19;;;;;;;23.17;18.85;;;;;;;;;;5052034;28;20873;-85
2022/11/15 13:40:45;;;;;;;22.10;19.70;;;;;;;;;;5051960;28;20405;-85
2022/11/15 13:43:23;;;;;;;22.63;19.15;;;;;;;;;;5040535;28;20941;-85
2022/11/15 13:46:08;;;;;;;19.80;17.15;;;;;;;;;;5056162;28;20388;-84
2022/11/15 13:48:34;;;;;;;21.73;18.70;;;;;;;;;;5037851;28;20916;-85
2022/11/15 13:51:20;;;;;;;19.35;17.27;;;;;;;;;;5055635;28;20409;-84
2022/11/15 13:53:48;;;;;;;23.90;19.35;;;;;;;;;;5055919;28;20381;-84
2022/11/15 13:56:15;;;;;;;21.70;19.38;;;;;;;;;;5055792;28;20396;-84
2022/11/15 13:58:42;;;;;;;20.15;17.85;;;;;;;;;;5051563;28;20883;-85
2022/11/15 14:01:14;;;;;;;17.65;15.77;;;;;;;;;;5017698;28;20891;-85
2022/11/15 14:03:48;;;;;;;18.30;16.42;;;;;;;;;;5035843;28;20393;-85
2022/11/15 14:06:19;;;;;;;18.27;16.48;;;;;;;;;;5035805;28;20383;-85
2022/11/15 14:08:58;;;;;;;21.08;18.88;;;;;;;;;;5035558;28;20394;-84
2022/11/15 14:11:24;;;;;;;20.10;18.00;;;;;;;;;;5035366;28;20486;-85
2022/11/15 14:14:08;;;;;;;18.55;16.55;;;;;;;;;;5035458;28;20932;-85
2022/11/15 14:16:38;;;;;;;19.75;16.88;;;;;;;;;;5035797;28;20441;-85
2022/11/15 14:19:05;;;;;;;17.57;15.87;;;;;;;;;;5035558;28;20741;-84
2022/11/15 14:21:32;;;;;;;16.63;14.88;;;;;;;;;;5035408;28;20383;-84
2022/11/15 14:24:17;;;;;;;15.80;14.30;;;;;;;;;;5035719;28;20418;-84
2022/11/15 14:26:43;;;;;;;15.85;14.38;;;;;;;;;;5035327;28;20395;-84
2022/11/15 14:29:28;;;;;;;18.83;16.80;;;;;;;;;;5035375;28;20373;-85
2022/11/15 14:31:55;;;;;;;19.33;17.02;;;;;;;;;;5044857;28;20873;-85
2022/11/15 14:34:22;;;;;;;18.98;17.00;;;;;;;;;;5055039;28;20858;-85
2022/11/15 14:36:48;;;;;;;18.00;16.15;;;;;;;;;;5055265;28;20386;-85
2022/11/15 14:39:14;;;;;;;17.33;15.65;;;;;;;;;;5054927;28;20414;-85
2022/11/15 14:41:40;;;;;;;15.63;14.17;;;;;;;;;;5054914;28;20451;-84
2022/11/15 14:44:06;;;;;;;16.30;14.80;;;;;;;;;;5055073;28;20389;-85
2022/11/15 14:46:32;;;;;;;16.98;15.25;;;;;;;;;;5054877;28;20480;-84
2022/11/15 14:48:58;;;;;;;17.80;15.93;;;;;;;;;;5054772;28;20468;-84
2022/11/15 14:51:26;;;;;;;16.58;14.85;;;;;;;;;;5051283;28;20431;-85
2022/11/15 14:53:52;;;;;;;17.60;15.75;;;;;;;;;;5054923;28;20377;-85
2022/11/15 14:56:18;;;;;;;15.60;14.00;;;;;;;;;;5054391;28;20818;-85
2022/11/15 14:58:44;;;;;;;16.52;14.55;;;;;;;;;;5054669;28;20380;-85
2022/11/15 15:01:14;;;;;;;19.85;17.00;;;;;;;;;;5054664;28;20882;-85
2022/11/15 15:03:40;;;;;;;18.08;16.25;;;;;;;;;;5054607;28;20384;-85
2022/11/15 15:06:08;;;;;;;18.55;16.58;;;;;;;;;;5054509;28;20377;-84
2022/11/15 15:08:34;;;;;;;20.98;17.20;;;;;;;;;;5054556;28;20381;-84
2022/11/15 15:11:00;;;;;;;17.93;16.13;;;;;;;;;;5048406;28;20418;-84
2022/11/15 15:13:28;;;;;;;18.52;16.35;;;;;;;;;;5046230;28;20381;-84
2022/11/15 15:15:54;;;;;;;18.47;15.50;;;;;;;;;;5054031;28;20374;-85
2022/11/15 15:18:20;;;;;;;17.25;15.52;;;;;;;;;;5054285;28;20382;-85
2022/11/15 15:20:49;;;;;;;17.63;15.80;;;;;;;;;;5054049;28;20393;-85
2022/11/15 15:23:17;;;;;;;17.65;15.77;;;;;;;;;;5050981;28;20389;-85
2022/11/15 15:25:43;;;;;;;17.17;15.30;;;;;;;;;;5054101;28;20818;-85
2022/11/15 15:28:09;;;;;;;18.63;15.53;;;;;;;;;;5054191;28;20442;-85
2022/11/15 15:30:35;;;;;;;16.65;14.95;;;;;;;;;;5050224;28;20424;-85
2022/11/15 15:33:01;;;;;;;16.25;14.57;;;;;;;;;;5051184;28;20378;-84
2022/11/15 15:35:30;;;;;;;16.23;14.60;;;;;;;;;;5051792;28;20784;-84
2022/11/15 15:37:56;;;;;;;16.17;14.55;;;;;;;;;;5049093;28;20409;-85
2022/11/15 15:40:23;;;;;;;17.40;15.50;;;;;;;;;;5066331;28;20938;-84
2022/11/15 15:42:50;;;;;;;15.02;13.63;;;;;;;;;;5067190;28;21062;-84
2022/11/15 15:45:17;;;;;;;15.60;14.05;;;;;;;;;;5053727;28;20385;-84
2022/11/15 15:47:43;;;;;;;16.48;14.85;;;;;;;;;;5053713;28;20463;-84
2022/11/15 15:50:29;;;;;;;17.15;15.45;;;;;;;;;;5052561;28;20851;-85
2022/11/15 15:52:56;;;;;;;17.00;15.40;;;;;;;;;;5041019;28;20386;-84
2022/11/15 15:55:22;;;;;;;15.07;13.77;;;;;;;;;;5058991;28;20500;-85
2022/11/15 15:57:48;;;;;;;15.30;13.90;;;;;;;;;;5070966;28;20851;-84
2022/11/15 16:00:15;;;;;;;14.50;13.10;;;;;;;;;;5054271;28;20434;-84
2022/11/15 16:02:41;;;;;;;14.60;13.10;;;;;;;;;;5052893;28;20727;-84
2022/11/15 16:05:07;;;;;;;14.10;12.70;;;;;;;;;;5053522;28;20384;-84
2022/11/15 16:07:33;;;;;;;14.45;13.05;;;;;;;;;;5052363;28;20432;-83
2022/11/15 16:09:59;;;;;;;13.52;12.32;;;;;;;;;;5053469;28;20374;-82
2022/11/15 16:12:26;;;;;;;13.68;12.48;;;;;;;;;;5053113;28;20915;-83
2022/11/15 16:14:52;;;;;;;14.13;12.82;;;;;;;;;;5053318;28;20384;-82
2022/11/15 16:17:21;;;;;;;14.55;13.23;;;;;;;;;;5053173;28;20432;-83
2022/11/15 16:19:47;;;;;;;20.77;17.13;;;;;;;;;;5053111;28;20378;-83
2022/11/15 16:22:13;;;;;;;18.52;16.60;;;;;;;;;;5052914;28;20481;-83
2022/11/15 16:24:42;;;;;;;17.58;15.73;;;;;;;;;;5052373;28;20381;-83
2022/11/15 16:27:20;;;;;;;19.42;16.42;;;;;;;;;;5069732;28;20349;-84
2022/11/15 16:29:46;;;;;;;17.42;15.70;;;;;;;;;;5069845;28;20503;-83
2022/11/15 16:32:12;;;;;;;17.30;15.60;;;;;;;;;;5069419;28;20375;-82
2022/11/15 16:34:38;;;;;;;16.33;14.82;;;;;;;;;;5069251;28;20377;-83
2022/11/15 16:37:05;;;;;;;16.58;14.98;;;;;;;;;;5069338;28;20812;-83
2022/11/15 16:39:31;;;;;;;18.43;16.53;;;;;;;;;;5069346;28;20462;-80
2022/11/15 16:41:58;;;;;;;19.85;17.88;;;;;;;;;;5052890;28;20415;-80
2022/11/15 16:44:24;;;;;;;23.42;20.35;;;;;;;;;;5058619;28;20373;-80
2022/11/15 16:46:50;;;;;;;21.58;18.30;;;;;;;;;;5062342;28;20808;-80
2022/11/15 16:49:17;;;;;;;21.50;17.58;;;;;;;;;;5029834;28;20392;-80
2022/11/15 16:51:47;;;;;;;22.25;18.05;;;;;;;;;;5067096;28;20742;-80
2022/11/15 16:54:14;;;;;;;18.83;16.55;;;;;;;;;;5069024;28;20388;-80
2022/11/15 16:56:40;;;;;;;20.92;17.13;;;;;;;;;;5069025;28;20383;-80
2022/11/15 16:59:06;;;;;;;20.63;16.20;;;;;;;;;;5042308;28;20417;-80
2022/11/15 17:01:32;;;;;;;17.88;16.08;;;;;;;;;;5064525;28;20383;-81
2022/11/15 17:03:58;;;;;;;17.27;15.48;;;;;;;;;;5067859;28;20779;-83
2022/11/15 17:06:25;;;;;;;20.02;17.13;;;;;;;;;;5068447;28;20881;-81
2022/11/15 17:08:52;;;;;;;21.25;18.42;;;;;;;;;;5068707;28;20384;-80
2022/11/15 17:11:21;;;;;;;24.83;19.38;;;;;;;;;;5047116;28;20442;-80
2022/11/15 17:13:48;;;;;;;21.58;18.38;;;;;;;;;;5061715;28;20396;-80
2022/11/15 17:16:15;;;;;;;23.17;19.83;;;;;;;;;;5069101;28;20776;-80
2022/11/15 17:18:44;;;;;;;22.90;20.52;;;;;;;;;;5059455;28;20388;-80
2022/11/15 17:21:14;;;;;;;27.67;21.85;;;;;;;;;;5050346;28;20443;-81
2022/11/15 17:23:40;;;;;;;25.92;21.85;;;;;;;;;;5042241;28;20395;-80
2022/11/15 17:26:07;;;;;;;29.60;25.48;;;;;;;;;;5042815;28;20406;-81
2022/11/15 17:28:33;;;;;;;28.70;24.95;;;;;;;;;;5048517;28;20386;-80
2022/11/15 17:30:59;;;;;;;24.45;21.33;;;;;;;;;;5052660;28;20381;-80
2022/11/15 17:33:25;;;;;;;25.00;21.50;;;;;;;;;;5088445;28;20379;-81
2022/11/15 17:35:55;;;;;;;28.67;22.42;;;;;;;;;;5086552;28;20855;-80
2022/11/15 17:38:21;;;;;;;25.33;20.77;;;;;;;;;;5076291;28;20376;-80
2022/11/15 17:40:47;;;;;;;24.42;19.45;;;;;;;;;;5074836;28;20384;-81
2022/11/15 17:43:13;;;;;;;23.35;19.77;;;;;;;;;;5075120;28;20372;-80
2022/11/15 17:45:42;;;;;;;20.95;18.75;;;;;;;;;;5051122;28;20842;-80
2022/11/15 17:48:08;;;;;;;22.58;19.42;;;;;;;;;;5057477;28;20427;-78
2022/11/15 17:50:34;;;;;;;23.48;20.98;;;;;;;;;;5075296;28;20476;-81
2022/11/15 17:53:00;;;;;;;22.08;19.73;;;;;;;;;;5073348;28;20457;-81
2022/11/15 17:55:26;;;;;;;24.55;19.85;;;;;;;;;;5066692;28;20378;-81
2022/11/15 17:57:52;;;;;;;22.60;20.23;;;;;;;;;;5054303;28;20893;-81
2022/11/15 18:00:20;;;;;;;24.90;20.88;;;;;;;;;;5060005;28;20372;-81
2022/11/15 18:02:46;;;;;;;25.85;21.13;;;;;;;;;;5074450;28;20376;-81
2022/11/15 18:05:12;;;;;;;21.45;19.15;;;;;;;;;;5074781;28;20418;-82
2022/11/15 18:07:38;;;;;;;26.38;21.27;;;;;;;;;;5074637;28;20709;-81
2022/11/15 18:10:04;;;;;;;23.50;19.77;;;;;;;;;;5074395;28;20434;-81
2022/11/15 18:12:30;;;;;;;21.27;19.10;;;;;;;;;;5074241;28;20407;-81
2022/11/15 18:14:56;;;;;;;22.47;20.03;;;;;;;;;;5074340;28;20879;-81
2022/11/15 18:17:23;;;;;;;27.63;21.80;;;;;;;;;;5074126;28;20372;-81
2022/11/15 18:19:48;;;;;;;29.15;22.83;;;;;;;;;;5074101;28;20376;-82
2022/11/15 18:22:14;;;;;;;28.00;23.90;;;;;;;;;;5073970;28;20387;-81
2022/11/15 18:24:42;;;;;;;25.80;22.40;;;;;;;;;;5074611;28;20419;-82
2022/11/15 18:27:08;;;;;;;27.02;22.92;;;;;;;;;;5044874;28;20919;-81
2022/11/15 18:29:36;;;;;;;25.48;21.58;;;;;;;;;;5042238;28;20420;-82
2022/11/15 18:32:05;;;;;;;26.30;21.92;;;;;;;;;;5047282;28;20373;-82
2022/11/15 18:34:32;;;;;;;28.75;23.65;;;;;;;;;;5052247;28;20376;-83
2022/11/15 18:36:59;;;;;;;27.65;23.38;;;;;;;;;;5050413;28;20384;-82
2022/11/15 18:39:25;;;;;;;28.20;23.15;;;;;;;;;;5054635;28;20862;-82
2022/11/15 18:41:51;;;;;;;29.33;25.30;;;;;;;;;;5048872;28;20464;-83
2022/11/15 18:44:17;;;;;;;32.38;26.40;;;;;;;;;;5048362;28;20377;-82
2022/11/15 18:46:43;;;;;;;30.45;26.50;;;;;;;;;;5050464;28;20403;-83
2022/11/15 18:49:11;;;;;;;32.20;25.88;;;;;;;;;;5049876;28;20376;-83
2022/11/15 18:51:40;;;;;;;26.38;22.52;;;;;;;;;;5048690;28;20462;-83
2022/11/15 18:54:06;;;;;;;24.38;21.83;;;;;;;;;;5049940;28;20409;-83
2022/11/15 18:56:32;;;;;;;24.33;21.70;;;;;;;;;;5055822;28;20393;-82
2022/11/15 18:59:00;;;;;;;24.00;20.33;;;;;;;;;;5052293;28;20385;-83
2022/11/15 19:01:27;;;;;;;22.23;19.40;;;;;;;;;;5050306;28;20476;-82
2022/11/15 19:03:54;;;;;;;23.85;18.15;;;;;;;;;;5052466;28;20383;-84
2022/11/15 19:06:25;;;;;;;20.23;18.20;;;;;;;;;;5050014;28;20447;-83
2022/11/15 19:08:53;;;;;;;19.57;17.47;;;;;;;;;;5053158;28;20378;-83
2022/11/15 19:11:22;;;;;;;20.55;18.45;;;;;;;;;;5042548;28;20379;-80
2022/11/15 19:13:52;;;;;;;21.80;19.50;;;;;;;;;;5061026;28;20489;-81
2022/11/15 19:16:18;;;;;;;25.15;19.35;;;;;;;;;;5036736;28;21153;-82
2022/11/15 19:18:44;;;;;;;22.25;19.05;;;;;;;;;;5036834;28;20384;-82
2022/11/15 19:21:11;;;;;;;20.42;17.60;;;;;;;;;;5041392;28;20853;-82
2022/11/15 19:23:38;;;;;;;21.10;18.95;;;;;;;;;;5035830;28;20421;-83
2022/11/15 19:26:05;;;;;;;16.00;14.40;;;;;;;;;;5034727;28;20426;-83
2022/11/15 19:28:31;;;;;;;16.15;14.68;;;;;;;;;;5035579;28;20385;-83
2022/11/15 19:31:06;;;;;;;16.33;14.63;;;;;;;;;;5053886;28;20378;-84
2022/11/15 19:33:32;;;;;;;16.15;14.55;;;;;;;;;;5041693;28;20394;-81